Time;durP1;ratioP1;P1;durP2;ratioP2;P2;SDS_P1;SDS_P2;PMS_P1;PMS_P2;Temp;Humidity;BMP_temperature;BMP_pressure;BME280_temperature;BME280_humidity;BME280_pressure;Samples;Min_cycle;Max_cycle;Signal;HPM_P1;HPM_P2
2022/12/06 00:01:18;;;;;;;3.03;2.72;;;6.70;99.90;;;;;;5040659;28;20204;-40
2022/12/06 00:03:45;;;;;;;3.33;2.78;;;6.70;99.90;;;;;;5039808;28;20024;-41
2022/12/06 00:06:18;;;;;;;3.65;2.88;;;6.60;99.90;;;;;;5041027;28;20491;-40
2022/12/06 00:08:44;;;;;;;2.50;2.30;;;6.70;99.90;;;;;;5040311;28;20063;-41
2022/12/06 00:11:20;;;;;;;3.40;2.70;;;6.70;99.90;;;;;;5040210;28;20820;-41
2022/12/06 00:13:47;;;;;;;2.53;2.33;;;6.70;99.90;;;;;;5040687;28;20021;-39
2022/12/06 00:16:15;;;;;;;2.97;2.67;;;6.70;99.90;;;;;;5039933;28;20033;-41
2022/12/06 00:18:42;;;;;;;2.90;2.53;;;6.70;99.90;;;;;;5040570;28;20036;-40
2022/12/06 00:21:27;;;;;;;2.85;2.58;;;6.70;99.90;;;;;;5040932;28;20049;-40
2022/12/06 00:24:05;;;;;;;2.90;2.60;;;6.70;99.90;;;;;;5039865;28;20328;-40
2022/12/06 00:26:35;;;;;;;3.38;2.60;;;6.70;99.90;;;;;;5041221;28;20024;-40
2022/12/06 00:29:01;;;;;;;4.10;3.00;;;6.60;99.90;;;;;;5044314;28;20021;-40
2022/12/06 00:31:29;;;;;;;3.22;2.85;;;6.60;99.90;;;;;;5043810;28;20043;-39
2022/12/06 00:33:55;;;;;;;4.15;3.72;;;6.60;99.90;;;;;;5044464;28;20809;-38
2022/12/06 00:36:23;;;;;;;3.05;2.75;;;6.60;99.90;;;;;;5043902;28;20037;-39
2022/12/06 00:38:50;;;;;;;3.38;2.88;;;6.60;99.90;;;;;;5043219;28;20048;-39
2022/12/06 00:41:18;;;;;;;3.47;3.05;;;6.60;99.90;;;;;;5043944;28;20040;-39
2022/12/06 00:43:44;;;;;;;3.65;3.20;;;6.70;99.90;;;;;;5044719;28;20044;-39
2022/12/06 00:46:16;;;;;;;4.20;3.40;;;6.70;99.90;;;;;;5043966;28;20021;-41
2022/12/06 00:48:43;;;;;;;3.30;3.00;;;6.70;99.90;;;;;;5044853;28;20412;-40
2022/12/06 00:51:09;;;;;;;4.40;3.20;;;6.70;99.90;;;;;;5044326;28;20009;-40
2022/12/06 00:53:35;;;;;;;3.60;3.30;;;6.60;99.90;;;;;;5044116;28;20048;-40
2022/12/06 00:56:01;;;;;;;4.43;3.67;;;6.60;99.90;;;;;;5043582;28;20048;-40
2022/12/06 00:58:26;;;;;;;4.43;3.60;;;6.60;99.90;;;;;;5043934;28;20115;-39
2022/12/06 01:00:52;;;;;;;3.80;3.08;;;6.60;99.90;;;;;;5043761;28;20222;-39
2022/12/06 01:03:18;;;;;;;4.22;3.25;;;6.60;99.90;;;;;;5043992;28;20017;-40
2022/12/06 01:05:48;;;;;;;4.10;3.70;;;6.60;99.90;;;;;;5043377;28;20052;-41
2022/12/06 01:08:14;;;;;;;3.33;3.03;;;6.60;99.90;;;;;;5033451;28;20756;-41
2022/12/06 01:10:40;;;;;;;4.03;3.40;;;6.60;99.90;;;;;;5043630;28;20037;-34
2022/12/06 01:13:07;;;;;;;3.67;3.20;;;6.60;99.90;;;;;;5043139;28;20142;-39
2022/12/06 01:15:36;;;;;;;3.45;3.10;;;6.60;99.90;;;;;;5043754;28;20562;-41
2022/12/06 01:18:02;;;;;;;4.10;3.40;;;6.60;99.90;;;;;;5041916;28;20021;-37
2022/12/06 01:20:28;;;;;;;3.20;2.90;;;6.60;99.90;;;;;;5042487;28;20039;-40
2022/12/06 01:22:54;;;;;;;3.58;3.10;;;6.60;99.90;;;;;;5043097;28;20029;-41
2022/12/06 01:25:19;;;;;;;4.18;3.35;;;6.50;99.90;;;;;;5042983;28;20207;-40
2022/12/06 01:27:45;;;;;;;4.10;3.25;;;6.50;99.90;;;;;;5042094;28;20036;-37
2022/12/06 01:30:11;;;;;;;4.03;3.63;;;6.50;99.90;;;;;;5042505;28;20114;-40
2022/12/06 01:32:36;;;;;;;4.00;3.47;;;6.50;99.90;;;;;;5042760;28;20147;-41
2022/12/06 01:35:02;;;;;;;4.18;3.50;;;6.50;99.90;;;;;;5041745;28;20676;-39
2022/12/06 01:37:28;;;;;;;5.10;3.70;;;6.50;99.90;;;;;;5041507;28;20506;-40
2022/12/06 01:39:53;;;;;;;4.95;3.60;;;6.50;99.90;;;;;;5041721;28;20021;-40
2022/12/06 01:42:19;;;;;;;4.65;4.00;;;6.50;99.90;;;;;;5041538;28;20742;-39
2022/12/06 01:44:55;;;;;;;5.55;4.32;;;6.50;99.90;;;;;;5042154;28;20036;-39
2022/12/06 01:47:33;;;;;;;5.15;3.90;;;6.50;99.90;;;;;;5041696;28;20052;-40
2022/12/06 01:50:13;;;;;;;5.30;3.95;;;6.50;99.90;;;;;;5042774;28;20039;-39
2022/12/06 01:52:56;;;;;;;4.60;4.20;;;6.50;99.90;;;;;;5042332;28;20096;-40
2022/12/06 01:55:27;;;;;;;6.45;4.30;;;6.50;99.90;;;;;;5042598;28;20094;-40
2022/12/06 01:57:56;;;;;;;6.10;4.68;;;6.50;99.90;;;;;;5042925;28;20162;-39
2022/12/06 02:00:22;;;;;;;6.00;4.20;;;6.50;99.90;;;;;;5043615;28;20024;-40
2022/12/06 02:02:48;;;;;;;6.25;4.00;;;6.50;99.90;;;;;;5041914;28;20059;-38
2022/12/06 02:05:15;;;;;;;5.22;4.00;;;6.50;99.90;;;;;;5042136;28;20017;-40
2022/12/06 02:07:42;;;;;;;6.63;4.25;;;6.50;99.90;;;;;;5042231;28;20021;-40
2022/12/06 02:10:08;;;;;;;5.45;4.22;;;6.50;99.90;;;;;;5042271;28;20028;-39
2022/12/06 02:12:34;;;;;;;5.93;4.35;;;6.50;99.90;;;;;;5042365;28;20033;-39
2022/12/06 02:15:00;;;;;;;5.50;3.90;;;6.50;99.90;;;;;;5042499;28;20033;-40
2022/12/06 02:17:40;;;;;;;5.82;3.60;;;6.50;99.90;;;;;;5042428;28;20587;-39
2022/12/06 02:20:16;;;;;;;4.60;3.55;;;6.50;99.90;;;;;;5041796;28;20114;-40
2022/12/06 02:23:06;;;;;;;5.93;3.90;;;6.50;99.90;;;;;;5041870;28;20032;-40
2022/12/06 02:25:53;;;;;;;5.32;4.18;;;6.50;99.90;;;;;;5040661;28;20144;-39
2022/12/06 02:28:40;;;;;;;5.85;4.55;;;6.50;99.90;;;;;;5042842;28;20032;-40
2022/12/06 02:31:29;;;;;;;7.70;5.20;;;6.50;99.90;;;;;;5031580;28;20106;-39
2022/12/06 02:34:08;;;;;;;6.40;4.25;;;6.50;99.90;;;;;;5041653;28;20751;-40
2022/12/06 02:36:40;;;;;;;5.18;4.50;;;6.50;99.90;;;;;;5041671;28;20155;-38
2022/12/06 02:39:24;;;;;;;6.88;4.30;;;6.50;99.90;;;;;;5041432;28;20480;-38
2022/12/06 02:42:01;;;;;;;7.40;4.47;;;6.50;99.90;;;;;;5041279;28;20028;-40
2022/12/06 02:44:38;;;;;;;5.28;4.50;;;6.50;99.90;;;;;;5041253;28;20017;-40
2022/12/06 02:47:07;;;;;;;6.15;4.55;;;6.50;99.90;;;;;;5041663;28;20079;-40
2022/12/06 02:49:34;;;;;;;6.32;4.38;;;6.50;99.90;;;;;;5039177;28;20108;-38
2022/12/06 02:52:01;;;;;;;6.00;4.40;;;6.50;99.90;;;;;;5041763;28;20042;-39
2022/12/06 02:54:27;;;;;;;7.47;4.93;;;6.50;99.90;;;;;;5042186;28;20036;-38
2022/12/06 02:56:53;;;;;;;6.93;4.80;;;6.50;99.90;;;;;;5042583;28;20053;-39
2022/12/06 02:59:19;;;;;;;9.43;5.00;;;6.50;99.90;;;;;;5041349;28;20540;-37
2022/12/06 03:01:48;;;;;;;6.82;4.60;;;6.50;99.90;;;;;;5042421;28;20033;-39
2022/12/06 03:04:30;;;;;;;6.07;4.57;;;6.40;99.90;;;;;;5041874;28;20032;-39
2022/12/06 03:07:20;;;;;;;8.07;5.25;;;6.40;99.90;;;;;;5039300;28;20362;-40
2022/12/06 03:10:10;;;;;;;8.85;5.63;;;6.40;99.90;;;;;;5041750;28;20028;-38
2022/12/06 03:12:44;;;;;;;7.50;5.25;;;6.40;99.90;;;;;;5032486;28;20461;-39
2022/12/06 03:15:22;;;;;;;9.35;5.93;;;6.40;99.90;;;;;;5041871;28;20083;-46
2022/12/06 03:17:57;;;;;;;12.77;5.38;;;6.40;99.90;;;;;;5042027;28;20031;-40
2022/12/06 03:20:44;;;;;;;7.88;5.28;;;6.40;99.90;;;;;;5041410;28;20735;-41
2022/12/06 03:23:14;;;;;;;8.75;5.53;;;6.40;99.90;;;;;;5042090;28;20029;-40
2022/12/06 03:25:42;;;;;;;7.88;5.10;;;6.40;99.90;;;;;;5040858;28;20720;-40
2022/12/06 03:28:10;;;;;;;7.82;5.32;;;6.30;99.90;;;;;;5041281;28;20029;-41
2022/12/06 03:30:37;;;;;;;6.38;5.35;;;6.30;99.90;;;;;;5041551;28;20477;-41
2022/12/06 03:33:03;;;;;;;10.60;5.30;;;6.40;99.90;;;;;;5040299;28;20025;-39
2022/12/06 03:35:31;;;;;;;10.90;4.95;;;6.30;99.90;;;;;;5042027;28;20861;-42
2022/12/06 03:38:09;;;;;;;10.88;4.95;;;6.30;99.90;;;;;;5041227;28;20473;-43
2022/12/06 03:40:39;;;;;;;9.95;5.28;;;6.40;99.90;;;;;;5041213;28;20128;-41
2022/12/06 03:43:05;;;;;;;8.35;4.43;;;6.40;99.90;;;;;;5041341;28;20935;-41
2022/12/06 03:45:45;;;;;;;8.20;4.93;;;6.30;99.90;;;;;;5042262;28;20128;-40
2022/12/06 03:48:25;;;;;;;7.40;4.88;;;6.40;99.90;;;;;;5037749;28;20017;-40
2022/12/06 03:51:02;;;;;;;8.20;4.70;;;6.30;99.90;;;;;;5040173;28;20033;-40
2022/12/06 03:53:28;;;;;;;11.18;4.93;;;6.30;99.90;;;;;;5041284;28;20021;-41
2022/12/06 03:55:53;;;;;;;10.13;4.65;;;6.30;99.90;;;;;;5040110;28;20033;-40
2022/12/06 03:58:19;;;;;;;8.90;4.78;;;6.30;99.90;;;;;;5041669;28;20033;-39
2022/12/06 04:00:45;;;;;;;6.32;4.65;;;6.30;99.90;;;;;;5044346;28;20060;-38
2022/12/06 04:03:11;;;;;;;6.68;4.32;;;6.30;99.90;;;;;;5047063;28;20107;-37
2022/12/06 04:05:36;;;;;;;7.72;4.82;;;6.30;99.90;;;;;;5048065;28;20066;-39
2022/12/06 04:08:02;;;;;;;8.18;5.00;;;6.30;99.90;;;;;;5046396;28;20465;-40
2022/12/06 04:10:27;;;;;;;8.48;4.72;;;6.40;99.90;;;;;;5047965;28;20850;-40
2022/12/06 04:12:59;;;;;;;8.32;4.63;;;6.40;99.90;;;;;;5047840;28;20025;-39
2022/12/06 04:15:26;;;;;;;6.50;4.18;;;6.40;99.90;;;;;;5047266;28;20051;-39
2022/12/06 04:18:12;;;;;;;6.55;4.28;;;6.40;99.90;;;;;;5047708;28;20032;-38
2022/12/06 04:23:28;;;;;;;4.85;3.22;;;6.40;99.90;;;;;;5047131;28;20086;-40
2022/12/06 04:25:54;;;;;;;6.93;4.35;;;6.40;99.90;;;;;;5047343;28;20490;-39
2022/12/06 04:39:17;;;;;;;5.75;3.60;;;6.30;99.90;;;;;;5045059;28;20054;-39
2022/12/06 04:44:27;;;;;;;5.78;3.90;;;6.30;99.90;;;;;;5046239;28;20039;-39
2022/12/06 04:46:52;;;;;;;5.40;3.70;;;6.30;99.90;;;;;;5048006;28;20020;-38
2022/12/06 04:49:18;;;;;;;10.20;3.78;;;6.30;99.90;;;;;;5046631;28;20751;-40
2022/12/06 04:51:44;;;;;;;7.47;3.88;;;6.30;99.90;;;;;;5046666;28;20040;-39
2022/12/06 04:54:09;;;;;;;5.80;3.97;;;6.20;99.90;;;;;;5047105;28;20127;-40
2022/12/06 04:56:35;;;;;;;5.50;3.72;;;6.20;99.90;;;;;;5046399;28;20033;-40
2022/12/06 04:59:00;;;;;;;7.38;3.67;;;6.20;99.90;;;;;;5045894;28;20039;-40
2022/12/06 05:01:26;;;;;;;4.82;3.65;;;6.30;99.90;;;;;;5047641;28;20483;-40
2022/12/06 05:03:52;;;;;;;5.70;3.92;;;6.30;99.90;;;;;;5046752;28;20195;-40
2022/12/06 05:06:17;;;;;;;4.57;3.20;;;6.30;99.90;;;;;;5046599;28;20036;-39
2022/12/06 05:08:43;;;;;;;6.50;3.67;;;6.30;99.90;;;;;;5046484;28;20029;-40
2022/12/06 05:11:08;;;;;;;5.28;3.20;;;6.30;99.90;;;;;;5046412;28;20090;-40
2022/12/06 05:13:34;;;;;;;4.53;3.42;;;6.30;99.90;;;;;;5043373;28;20029;-35
2022/12/06 05:16:03;;;;;;;6.50;3.30;;;6.30;99.90;;;;;;5040761;28;20037;-39
2022/12/06 05:18:29;;;;;;;5.93;3.47;;;6.30;99.90;;;;;;5044333;28;20104;-39
2022/12/06 05:21:14;;;;;;;5.07;3.20;;;6.30;99.90;;;;;;5043686;28;20040;-38
2022/12/06 05:23:40;;;;;;;5.90;3.20;;;6.30;99.90;;;;;;5043955;28;20151;-41
2022/12/06 05:26:09;;;;;;;5.63;3.45;;;6.30;99.90;;;;;;5042694;28;20120;-40
2022/12/06 05:28:35;;;;;;;6.63;3.70;;;6.20;99.90;;;;;;5043903;28;20037;-39
2022/12/06 05:31:01;;;;;;;6.18;3.90;;;6.20;99.90;;;;;;5043192;28;20028;-39
2022/12/06 05:33:27;;;;;;;5.07;3.38;;;6.20;99.90;;;;;;5042843;28;20116;-39
2022/12/06 05:35:52;;;;;;;3.95;3.13;;;6.20;99.90;;;;;;5042621;28;20078;-41
2022/12/06 05:38:19;;;;;;;7.25;3.35;;;6.20;99.90;;;;;;5042513;28;20040;-40
2022/12/06 05:40:45;;;;;;;4.38;3.40;;;6.20;99.90;;;;;;5041990;28;20467;-40
2022/12/06 05:43:11;;;;;;;4.72;3.05;;;6.20;99.90;;;;;;5043359;28;20021;-41
2022/12/06 05:45:37;;;;;;;5.60;2.80;;;6.20;99.90;;;;;;5042815;28;20025;-40
2022/12/06 05:48:06;;;;;;;3.78;3.03;;;6.20;99.90;;;;;;5042033;28;20028;-41
2022/12/06 05:50:33;;;;;;;4.63;3.05;;;6.10;99.90;;;;;;5042960;28;20029;-41
2022/12/06 05:52:59;;;;;;;5.05;3.05;;;6.10;99.90;;;;;;5043220;28;20033;-40
2022/12/06 05:55:26;;;;;;;6.60;3.00;;;6.10;99.90;;;;;;5043085;28;20050;-41
2022/12/06 05:57:51;;;;;;;6.47;3.67;;;6.10;99.90;;;;;;5031941;28;20029;-40
2022/12/06 06:00:18;;;;;;;4.45;3.10;;;6.10;99.90;;;;;;5042422;28;20021;-40
2022/12/06 06:02:44;;;;;;;3.80;3.15;;;6.10;99.90;;;;;;5042190;28;20666;-39
2022/12/06 06:05:10;;;;;;;4.60;2.67;;;6.20;99.90;;;;;;5043099;28;20064;-39
2022/12/06 06:07:36;;;;;;;4.40;2.65;;;6.10;99.90;;;;;;5041365;28;20025;-40
2022/12/06 06:10:02;;;;;;;3.67;2.90;;;6.20;99.90;;;;;;5042374;28;20542;-40
2022/12/06 06:12:28;;;;;;;5.30;3.65;;;6.10;99.90;;;;;;5042730;28;20036;-39
2022/12/06 06:14:53;;;;;;;8.05;3.17;;;6.10;99.90;;;;;;5041927;28;20040;-39
2022/12/06 06:17:19;;;;;;;6.20;3.55;;;6.10;99.90;;;;;;5042203;28;20041;-38
2022/12/06 06:19:44;;;;;;;4.65;3.92;;;6.10;99.90;;;;;;5042209;28;20037;-36
2022/12/06 06:22:10;;;;;;;5.05;3.30;;;6.10;99.90;;;;;;5041498;28;20021;-39
2022/12/06 06:24:40;;;;;;;4.70;3.50;;;6.10;99.90;;;;;;5042714;28;20419;-40
2022/12/06 06:27:06;;;;;;;4.22;2.97;;;6.10;99.90;;;;;;5042180;28;20025;-40
2022/12/06 06:29:31;;;;;;;5.95;3.60;;;6.10;99.90;;;;;;5041931;28;20029;-39
2022/12/06 06:31:57;;;;;;;6.47;3.50;;;6.10;99.90;;;;;;5042111;28;20021;-37
2022/12/06 06:34:23;;;;;;;4.85;3.13;;;6.10;99.90;;;;;;5042315;28;20033;-37
2022/12/06 06:36:49;;;;;;;5.18;3.22;;;6.00;99.90;;;;;;5041078;28;20552;-40
2022/12/06 06:39:14;;;;;;;6.57;3.53;;;6.00;99.90;;;;;;5043039;28;20029;-39
2022/12/06 06:41:40;;;;;;;6.00;3.20;;;6.00;99.90;;;;;;5040472;28;20709;-37
2022/12/06 06:44:05;;;;;;;4.55;3.10;;;6.00;99.90;;;;;;5040574;28;20029;-40
2022/12/06 06:46:31;;;;;;;5.53;3.40;;;6.00;99.90;;;;;;5041259;28;20028;-40
2022/12/06 06:48:57;;;;;;;4.20;3.05;;;6.10;99.90;;;;;;5040452;28;20021;-40
2022/12/06 06:51:22;;;;;;;6.28;3.60;;;6.00;99.90;;;;;;5040312;28;20039;-40
2022/12/06 06:53:48;;;;;;;4.80;3.40;;;6.00;99.90;;;;;;5041144;28;20013;-40
2022/12/06 06:56:13;;;;;;;5.32;3.75;;;6.10;99.90;;;;;;5041279;28;20395;-39
2022/12/06 06:58:39;;;;;;;4.20;3.80;;;6.10;99.90;;;;;;5035751;28;20029;-36
2022/12/06 07:01:06;;;;;;;7.88;3.65;;;6.00;99.90;;;;;;5043063;28;20086;-39
2022/12/06 07:03:33;;;;;;;5.90;3.10;;;6.00;99.90;;;;;;5039576;28;20480;-38
2022/12/06 07:06:08;;;;;;;4.57;3.47;;;6.00;99.90;;;;;;5040846;28;20085;-38
2022/12/06 07:08:34;;;;;;;4.22;3.15;;;6.00;99.90;;;;;;5040464;28;20464;-40
2022/12/06 07:11:00;;;;;;;5.47;3.63;;;6.00;99.90;;;;;;5040201;28;20028;-40
2022/12/06 07:13:26;;;;;;;4.10;3.67;;;6.00;99.90;;;;;;5041421;28;20058;-39
2022/12/06 07:15:52;;;;;;;6.40;3.67;;;6.00;99.90;;;;;;5041607;28;20033;-42
2022/12/06 07:18:18;;;;;;;5.57;3.47;;;6.00;99.90;;;;;;5039978;28;20082;-40
2022/12/06 07:20:45;;;;;;;6.07;3.47;;;6.00;99.90;;;;;;5040653;28;20449;-39
2022/12/06 07:23:14;;;;;;;4.57;3.00;;;5.90;99.90;;;;;;5039774;28;20664;-40
2022/12/06 07:25:40;;;;;;;4.93;2.90;;;5.90;99.90;;;;;;5040189;28;20035;-42
2022/12/06 07:28:06;;;;;;;4.28;3.10;;;5.90;99.90;;;;;;5040624;28;20104;-40
2022/12/06 07:30:32;;;;;;;4.80;2.80;;;5.90;99.90;;;;;;5040721;28;20043;-39
2022/12/06 07:33:01;;;;;;;4.82;2.97;;;5.90;99.90;;;;;;5039427;28;20497;-40
2022/12/06 07:35:27;;;;;;;6.13;3.05;;;5.90;99.90;;;;;;5039954;28;20029;-41
2022/12/06 07:37:52;;;;;;;5.18;3.47;;;5.90;99.90;;;;;;5040528;28;20142;-41
2022/12/06 07:40:18;;;;;;;3.80;2.70;;;5.90;99.90;;;;;;5039860;28;20052;-41
2022/12/06 07:45:35;;;;;;;3.53;2.40;;;5.90;99.90;;;;;;5040730;28;20070;-39
2022/12/06 07:48:00;;;;;;;5.28;2.70;;;5.90;99.90;;;;;;5040435;28;20056;-39
2022/12/06 07:50:29;;;;;;;3.40;2.30;;;5.90;99.90;;;;;;5041962;28;20837;-41
2022/12/06 07:52:54;;;;;;;4.22;2.40;;;5.90;99.90;;;;;;5041272;28;20029;-39
2022/12/06 07:55:20;;;;;;;5.65;3.53;;;5.90;99.90;;;;;;5040447;28;20117;-39
2022/12/06 07:57:48;;;;;;;3.80;2.80;;;5.90;99.90;;;;;;5040299;28;20087;-41
2022/12/06 08:00:15;;;;;;;3.65;2.55;;;5.90;99.90;;;;;;5039497;28;20911;-40
2022/12/06 08:02:41;;;;;;;2.83;2.00;;;5.90;99.90;;;;;;5041153;28;20037;-40
2022/12/06 08:05:07;;;;;;;3.95;2.20;;;5.90;99.90;;;;;;5040191;28;20056;-41
2022/12/06 08:07:33;;;;;;;2.00;1.80;;;6.00;99.90;;;;;;5039902;28;20120;-40
2022/12/06 08:09:58;;;;;;;2.40;2.00;;;6.00;99.90;;;;;;5040396;28;20826;-40
2022/12/06 08:12:24;;;;;;;2.13;1.70;;;6.00;99.90;;;;;;5040511;28;20083;-41
2022/12/06 08:14:49;;;;;;;2.58;1.98;;;6.00;99.90;;;;;;5040135;28;20033;-41
2022/12/06 08:17:15;;;;;;;2.65;2.00;;;6.00;99.90;;;;;;5040858;28;20039;-38
2022/12/06 08:19:41;;;;;;;3.42;2.00;;;6.00;99.90;;;;;;5041056;28;20814;-39
2022/12/06 08:22:06;;;;;;;3.58;2.38;;;6.10;99.90;;;;;;5040313;28;20159;-40
2022/12/06 08:24:32;;;;;;;4.88;2.10;;;6.10;99.90;;;;;;5040609;28;20033;-40
2022/12/06 08:26:58;;;;;;;3.22;2.30;;;6.10;99.90;;;;;;5040431;28;20032;-39
2022/12/06 08:29:24;;;;;;;2.72;2.10;;;6.10;99.90;;;;;;5039889;28;20913;-39
2022/12/06 08:31:50;;;;;;;3.15;2.38;;;6.10;99.90;;;;;;5040514;28;20041;-38
2022/12/06 08:34:15;;;;;;;4.20;2.47;;;6.00;99.90;;;;;;5041161;28;20091;-40
2022/12/06 08:36:41;;;;;;;3.45;2.30;;;5.90;99.90;;;;;;5039594;28;20041;-41
2022/12/06 08:39:10;;;;;;;3.15;2.30;;;5.80;99.90;;;;;;5040238;28;20087;-38
2022/12/06 08:41:54;;;;;;;3.33;2.28;;;5.70;99.90;;;;;;5040224;28;20116;-39
2022/12/06 08:44:20;;;;;;;3.13;2.40;;;5.70;99.90;;;;;;5040487;28;20029;-41
2022/12/06 08:46:47;;;;;;;2.88;2.30;;;5.60;99.90;;;;;;5041781;28;20045;-39
2022/12/06 08:49:17;;;;;;;3.10;2.60;;;5.50;99.90;;;;;;5043198;28;20040;-41
2022/12/06 08:51:43;;;;;;;1.90;1.75;;;5.50;99.90;;;;;;5044002;28;20661;-41
2022/12/06 08:54:13;;;;;;;2.38;2.15;;;5.50;99.90;;;;;;5044052;28;20090;-41
2022/12/06 08:56:38;;;;;;;4.57;2.40;;;5.50;99.90;;;;;;5043354;28;20036;-40
2022/12/06 08:59:04;;;;;;;4.25;2.05;;;5.40;99.90;;;;;;5043558;28;20082;-41
2022/12/06 09:01:31;;;;;;;2.88;2.33;;;5.40;99.90;;;;;;5044235;28;20029;-40
2022/12/06 09:04:04;;;;;;;3.55;2.30;;;5.40;99.90;;;;;;5043138;28;20072;-36
2022/12/06 09:06:30;;;;;;;6.20;2.70;;;5.40;99.90;;;;;;5044754;28;20044;-40
2022/12/06 09:08:57;;;;;;;4.30;2.92;;;5.40;99.90;;;;;;5043965;28;20080;-40
2022/12/06 09:11:23;;;;;;;3.20;2.40;;;5.40;99.90;;;;;;5043229;28;20041;-40
2022/12/06 09:13:49;;;;;;;4.97;3.33;;;5.40;99.90;;;;;;5042388;28;20758;-39
2022/12/06 09:16:19;;;;;;;6.78;3.28;;;5.40;99.90;;;;;;5044162;28;20052;-41
2022/12/06 09:18:45;;;;;;;4.65;3.20;;;5.40;99.90;;;;;;5043363;28;20025;-39
2022/12/06 09:21:14;;;;;;;4.47;3.17;;;5.40;99.90;;;;;;5044164;28;20044;-37
2022/12/06 09:23:40;;;;;;;4.00;2.75;;;5.40;99.90;;;;;;5043795;28;20100;-38
2022/12/06 09:26:06;;;;;;;5.05;3.10;;;5.50;99.90;;;;;;5043062;28;20041;-38
2022/12/06 09:28:34;;;;;;;5.63;3.20;;;5.50;99.90;;;;;;5043343;28;20496;-39
2022/12/06 09:31:01;;;;;;;4.78;3.45;;;5.50;99.90;;;;;;5043618;28;20762;-39
2022/12/06 09:33:27;;;;;;;4.15;3.00;;;5.50;99.90;;;;;;5043060;28;20029;-40
2022/12/06 09:35:52;;;;;;;4.30;3.17;;;5.50;99.90;;;;;;5042496;28;20036;-39
2022/12/06 09:38:25;;;;;;;6.70;3.13;;;5.60;99.90;;;;;;5043684;28;20037;-40
2022/12/06 09:41:20;;;;;;;4.60;3.05;;;5.60;99.90;;;;;;5043983;28;20108;-41
2022/12/06 09:43:57;;;;;;;4.85;3.15;;;5.60;99.90;;;;;;5043384;28;20075;-39
2022/12/06 09:46:40;;;;;;;6.15;2.60;;;5.60;99.90;;;;;;5043054;28;20048;-39
2022/12/06 09:49:24;;;;;;;4.47;2.70;;;5.70;99.90;;;;;;5043155;28;20025;-45
2022/12/06 09:52:07;;;;;;;3.22;2.70;;;5.70;99.90;;;;;;5042382;28;20033;-40
2022/12/06 09:54:44;;;;;;;3.65;2.60;;;5.70;99.90;;;;;;5042247;28;20048;-40
2022/12/06 09:57:34;;;;;;;5.25;2.67;;;5.70;99.90;;;;;;5023634;28;20132;-40
2022/12/06 10:00:03;;;;;;;6.55;3.20;;;5.80;99.90;;;;;;5039463;28;20094;-39
2022/12/06 10:02:53;;;;;;;4.22;2.47;;;5.80;99.90;;;;;;5043288;28;20040;-39
2022/12/06 10:05:33;;;;;;;3.17;2.40;;;5.90;99.90;;;;;;5043047;28;20044;-42
2022/12/06 10:08:17;;;;;;;2.47;2.20;;;5.90;99.90;;;;;;5042882;28;20044;-40
2022/12/06 10:11:02;;;;;;;3.40;2.38;;;5.90;99.90;;;;;;5041761;28;20544;-39
2022/12/06 10:13:38;;;;;;;4.00;2.10;;;5.90;99.90;;;;;;5042984;28;20035;-41
2022/12/06 10:16:27;;;;;;;3.97;2.30;;;6.00;99.90;;;;;;5040002;28;20047;-40
2022/12/06 10:19:25;;;;;;;2.63;2.10;;;6.00;99.90;;;;;;5042846;28;20078;-41
2022/12/06 10:22:19;;;;;;;7.03;3.38;;;6.00;99.90;;;;;;5032913;28;20439;-40
2022/12/06 10:25:06;;;;;;;3.97;2.25;;;6.10;99.90;;;;;;5042676;28;20496;-41
2022/12/06 10:27:47;;;;;;;2.55;1.85;;;6.10;99.90;;;;;;5041988;28;20040;-40
2022/12/06 10:30:14;;;;;;;3.63;2.00;;;6.20;99.90;;;;;;5042450;28;20029;-39
2022/12/06 10:32:42;;;;;;;3.03;1.95;;;6.20;99.90;;;;;;5042391;28;20029;-40
2022/12/06 10:35:35;;;;;;;2.65;2.00;;;6.20;99.90;;;;;;5041027;28;20035;-40
2022/12/06 10:38:17;;;;;;;2.28;1.83;;;6.20;99.90;;;;;;5041892;28;20106;-39
2022/12/06 10:41:06;;;;;;;3.73;2.07;;;6.30;99.90;;;;;;5041816;28;20036;-40
2022/12/06 10:44:03;;;;;;;2.63;2.03;;;6.30;99.90;;;;;;5041525;28;20539;-40
2022/12/06 10:49:57;;;;;;;3.22;1.95;;;6.30;99.90;;;;;;5042082;28;20757;-39
2022/12/06 10:52:49;;;;;;;3.72;2.55;;;6.30;99.90;;;;;;5039364;28;20032;-40
2022/12/06 10:55:44;;;;;;;1.83;1.60;;;6.30;99.90;;;;;;5042148;28;20039;-39
2022/12/06 10:58:35;;;;;;;3.72;2.10;;;6.40;99.90;;;;;;5032256;28;20043;-39
2022/12/06 11:01:03;;;;;;;2.25;1.70;;;6.40;99.90;;;;;;5042570;28;20131;-39
2022/12/06 11:04:07;;;;;;;2.17;1.80;;;6.40;99.90;;;;;;5042400;28;20032;-39
2022/12/06 11:06:44;;;;;;;3.45;1.70;;;6.50;99.90;;;;;;5041789;28;20091;-39
2022/12/06 11:09:36;;;;;;;3.40;1.85;;;6.60;99.90;;;;;;5041098;28;20060;-40
2022/12/06 11:12:17;;;;;;;5.30;1.70;;;6.70;99.90;;;;;;5040609;28;20033;-39
2022/12/06 11:14:55;;;;;;;2.88;1.60;;;6.70;99.90;;;;;;5044648;28;20401;-38
2022/12/06 11:17:26;;;;;;;2.33;1.60;;;6.70;99.90;;;;;;5010990;28;20639;-38
2022/12/06 11:19:59;;;;;;;2.40;1.70;;;6.80;99.90;;;;;;5039677;28;20021;-39
2022/12/06 11:22:44;;;;;;;1.55;1.20;;;6.80;99.90;;;;;;5038294;28;20029;-39
2022/12/06 11:25:29;;;;;;;2.63;1.60;;;6.90;99.90;;;;;;5016508;28;20473;-40
2022/12/06 11:28:04;;;;;;;2.95;1.70;;;6.90;99.90;;;;;;5035320;28;20126;-36
2022/12/06 11:30:32;;;;;;;2.53;1.63;;;7.00;99.90;;;;;;5041430;28;20040;-40
2022/12/06 11:32:59;;;;;;;3.35;2.00;;;7.10;99.90;;;;;;5039205;28;20037;-40
2022/12/06 11:35:27;;;;;;;2.88;1.70;;;7.20;99.90;;;;;;5040230;28;20033;-40
2022/12/06 11:38:01;;;;;;;3.38;2.05;;;7.30;99.90;;;;;;5039740;28;20048;-40
2022/12/06 11:40:36;;;;;;;3.42;1.90;;;7.40;99.90;;;;;;5015431;28;20459;-40
2022/12/06 11:43:06;;;;;;;3.28;1.95;;;7.50;99.90;;;;;;5039798;28;20413;-39
2022/12/06 11:45:33;;;;;;;5.18;2.15;;;7.60;99.90;;;;;;5039588;28;20110;-40
2022/12/06 11:48:04;;;;;;;2.50;1.80;;;7.60;99.90;;;;;;5040113;28;20025;-39
2022/12/06 11:50:32;;;;;;;3.53;1.92;;;7.60;99.90;;;;;;5040338;28;20032;-40
2022/12/06 11:53:12;;;;;;;3.97;1.92;;;7.60;99.90;;;;;;5038841;28;20028;-40
2022/12/06 11:55:51;;;;;;;2.70;1.77;;;7.60;99.90;;;;;;5039803;28;20128;-40
2022/12/06 11:58:29;;;;;;;3.35;1.95;;;7.60;99.90;;;;;;5038565;28;20124;-41
2022/12/06 12:01:01;;;;;;;2.20;1.50;;;7.60;99.90;;;;;;5038385;28;20773;-40
2022/12/06 12:03:36;;;;;;;4.25;1.90;;;7.70;99.90;;;;;;5039809;28;20035;-40
2022/12/06 12:06:25;;;;;;;4.05;2.05;;;7.70;99.90;;;;;;5039793;28;20033;-40
2022/12/06 12:09:03;;;;;;;3.15;1.75;;;7.80;99.90;;;;;;5039366;28;20033;-39
2022/12/06 12:11:35;;;;;;;4.68;2.08;;;7.80;99.90;;;;;;5021550;28;20121;-39
2022/12/06 12:14:22;;;;;;;3.60;1.90;;;7.70;99.90;;;;;;5038590;28;20028;-40
2022/12/06 12:16:49;;;;;;;2.90;1.65;;;7.80;99.90;;;;;;5038394;28;20090;-37
2022/12/06 12:19:23;;;;;;;2.15;1.67;;;7.80;99.90;;;;;;5038818;28;20029;-39
2022/12/06 12:21:49;;;;;;;2.38;1.65;;;7.80;99.90;;;;;;5040322;28;20105;-39
2022/12/06 12:24:56;;;;;;;2.28;1.73;;;7.90;99.90;;;;;;5043436;28;20031;-38
2022/12/06 12:27:32;;;;;;;2.10;1.50;;;7.90;99.90;;;;;;4980346;28;20034;-39
2022/12/06 12:30:16;;;;;;;2.95;1.92;;;8.00;99.90;;;;;;4996995;28;20033;-40
2022/12/06 12:32:42;;;;;;;1.85;1.60;;;7.90;99.90;;;;;;5029599;28;20041;-40
2022/12/06 12:35:20;;;;;;;5.85;1.88;;;7.90;99.90;;;;;;5042144;28;20033;-39
2022/12/06 12:37:54;;;;;;;3.92;1.60;;;7.90;99.90;;;;;;5042554;28;20088;-39
2022/12/06 12:40:28;;;;;;;2.38;1.50;;;8.00;99.90;;;;;;5042719;28;20025;-40
2022/12/06 12:42:59;;;;;;;2.22;1.52;;;7.90;99.90;;;;;;5042935;28;20025;-42
2022/12/06 12:45:26;;;;;;;3.53;1.83;;;8.00;99.90;;;;;;5041749;28;20029;-38
2022/12/06 12:48:17;;;;;;;2.85;2.00;;;8.00;99.90;;;;;;5022800;28;20469;-39
2022/12/06 12:50:52;;;;;;;3.05;1.48;;;7.90;99.90;;;;;;5040397;28;20025;-39
2022/12/06 12:53:30;;;;;;;1.77;1.38;;;8.00;99.90;;;;;;5042501;28;20116;-40
2022/12/06 12:56:06;;;;;;;2.80;1.63;;;8.00;99.90;;;;;;5042136;28;20039;-39
2022/12/06 12:58:31;;;;;;;3.65;1.70;;;7.90;99.90;;;;;;5043204;28;20076;-40
2022/12/06 13:01:04;;;;;;;5.20;1.92;;;7.90;99.90;;;;;;5042025;28;20497;-40
2022/12/06 13:03:30;;;;;;;1.67;1.58;;;8.00;99.90;;;;;;5022122;28;20064;-36
2022/12/06 13:05:56;;;;;;;1.88;1.40;;;8.00;99.90;;;;;;5037091;28;20032;-40
2022/12/06 13:08:26;;;;;;;2.42;1.33;;;8.00;99.90;;;;;;5042330;28;20025;-38
2022/12/06 13:10:55;;;;;;;2.20;1.40;;;8.00;99.90;;;;;;5041699;28;20420;-39
2022/12/06 13:13:39;;;;;;;2.30;1.45;;;8.00;99.90;;;;;;5042925;28;20071;-38
2022/12/06 13:16:13;;;;;;;3.33;1.52;;;8.00;99.90;;;;;;5041810;28;20068;-37
2022/12/06 13:18:45;;;;;;;3.75;1.67;;;8.00;99.90;;;;;;5041138;28;20029;-38
2022/12/06 13:21:24;;;;;;;2.80;1.38;;;8.00;99.90;;;;;;5042435;28;20079;-41
2022/12/06 13:24:05;;;;;;;5.50;1.95;;;7.90;99.90;;;;;;5041685;28;20025;-40
2022/12/06 13:26:58;;;;;;;2.03;1.60;;;7.90;99.90;;;;;;5041922;28;20021;-40
2022/12/06 13:29:35;;;;;;;2.92;1.60;;;7.90;99.90;;;;;;5023106;28;20183;-38
2022/12/06 13:32:45;;;;;;;3.10;1.80;;;7.80;99.90;;;;;;5038392;28;20036;-39
2022/12/06 13:35:20;;;;;;;4.78;2.17;;;7.80;99.90;;;;;;5042195;28;20033;-40
2022/12/06 13:38:02;;;;;;;3.65;2.08;;;7.80;99.90;;;;;;5037618;28;20045;-40
2022/12/06 13:40:50;;;;;;;3.45;2.10;;;7.80;99.90;;;;;;5041057;28;20064;-40
2022/12/06 13:43:25;;;;;;;2.08;1.58;;;7.80;99.90;;;;;;5037285;28;20033;-41